Time;durP1;ratioP1;P1;durP2;ratioP2;P2;SDS_P1;SDS_P2;PMS_P1;PMS_P2;Temp;Humidity;BMP_temperature;BMP_pressure;BME280_temperature;BME280_humidity;BME280_pressure;Samples;Min_cycle;Max_cycle;Signal;HPM_P1;HPM_P2
2022/05/12 00:00:20;;;;;;;4.87;3.10;;;26.10;46.60;;;-142.21;48.85;112049.66;5051480;28;20628;-76
2022/05/12 00:02:47;;;;;;;3.87;2.80;;;26.00;46.80;;;-142.21;50.35;112049.66;5050279;28;20285;-78
2022/05/12 00:05:17;;;;;;;6.67;2.90;;;26.00;47.10;;;-142.21;49.16;112049.66;5051453;28;20201;-78
2022/05/12 00:07:45;;;;;;;5.23;2.93;;;26.00;46.90;;;-142.21;49.87;112049.66;5031253;28;20199;-78
2022/05/12 00:10:16;;;;;;;4.47;2.87;;;26.00;47.00;;;-142.21;49.41;112049.66;5047407;28;20201;-78
2022/05/12 00:12:44;;;;;;;4.17;2.73;;;26.00;47.00;;;-142.21;50.15;112049.66;5050547;28;20304;-78
2022/05/12 00:15:15;;;;;;;6.90;3.67;;;25.90;47.20;;;-142.21;52.83;112049.66;5051452;28;20313;-78
2022/05/12 00:17:44;;;;;;;11.27;3.90;;;26.00;47.80;;;-142.21;52.04;112049.66;5053453;28;20208;-79
2022/05/12 00:20:13;;;;;;;3.10;2.80;;;26.00;47.60;;;-142.21;51.63;112049.66;5055076;28;20272;-78
2022/05/12 00:22:42;;;;;;;2.97;2.77;;;26.00;47.60;;;-142.21;52.88;112049.66;5054455;28;20232;-78
2022/05/12 00:25:14;;;;;;;3.17;2.87;;;26.00;48.40;;;-142.21;52.00;112049.66;5055018;28;20293;-78
2022/05/12 00:27:41;;;;;;;6.90;3.33;;;26.00;47.60;;;-142.21;51.77;112049.66;5038024;28;20198;-79
2022/05/12 00:30:11;;;;;;;4.97;3.27;;;26.00;47.70;;;-142.21;52.82;112049.66;5054609;28;20209;-78
2022/05/12 00:32:40;;;;;;;3.73;2.93;;;26.00;47.90;;;-142.21;53.68;112049.66;5053586;28;20294;-79
2022/05/12 00:35:10;;;;;;;3.27;2.90;;;26.00;48.00;;;-142.21;52.78;112049.66;5046850;28;20304;-79
2022/05/12 00:37:37;;;;;;;3.33;2.63;;;26.00;47.80;;;-142.21;52.62;112049.66;5054329;28;20572;-77
2022/05/12 00:40:08;;;;;;;7.83;2.90;;;26.00;47.90;;;-142.21;52.69;112049.66;5054500;28;20206;-79
2022/05/12 00:42:35;;;;;;;3.33;3.00;;;26.00;47.90;;;-142.21;52.42;112049.66;5053844;28;20232;-79
2022/05/12 00:45:03;;;;;;;5.43;3.00;;;26.00;47.80;;;-142.21;53.60;112049.66;5054014;28;20229;-79
2022/05/12 00:47:31;;;;;;;3.37;2.90;;;26.00;47.80;;;-142.21;53.09;112049.66;5054100;28;20618;-79
2022/05/12 00:49:58;;;;;;;3.73;3.00;;;26.00;48.00;;;-142.21;54.87;112049.66;5054769;28;20238;-78
2022/05/12 00:52:29;;;;;;;3.10;2.80;;;26.00;48.10;;;-142.21;55.27;112049.66;5054412;28;20198;-78
2022/05/12 00:55:03;;;;;;;3.93;2.87;;;26.00;48.60;;;-142.21;57.25;112049.66;5053815;28;20253;-78
2022/05/12 00:57:36;;;;;;;3.20;2.90;;;25.90;48.70;;;-142.21;58.55;112049.66;5054581;28;20198;-78
2022/05/12 01:00:08;;;;;;;2.87;2.67;;;25.80;49.30;;;-142.21;57.66;112049.66;5054294;28;20281;-79
2022/05/12 01:02:37;;;;;;;8.73;2.70;;;25.80;48.80;;;-142.21;57.60;112049.66;5053551;28;20200;-79
2022/05/12 01:05:06;;;;;;;3.20;2.83;;;25.80;49.20;;;-142.21;58.28;112049.66;5053884;28;20197;-80
2022/05/12 01:07:33;;;;;;;3.73;2.97;;;25.80;49.30;;;-142.21;60.58;112049.66;5054200;28;20207;-79
2022/05/12 01:10:01;;;;;;;2.93;2.73;;;25.80;49.30;;;-142.21;58.48;112049.66;5054140;28;20288;-78
2022/05/12 01:12:31;;;;;;;5.13;2.97;;;25.70;49.30;;;-142.21;56.45;112049.66;5053780;28;20229;-79
2022/05/12 01:14:58;;;;;;;4.53;3.13;;;25.70;48.90;;;-142.21;56.37;112049.66;5053215;28;20653;-80
2022/05/12 01:17:26;;;;;;;3.43;2.30;;;25.70;48.70;;;-142.21;56.50;112049.66;5054266;28;20267;-78
2022/05/12 01:19:54;;;;;;;2.87;2.60;;;25.70;48.80;;;-142.21;51.98;112049.66;5053692;28;20212;-77
2022/05/12 01:22:42;;;;;;;4.50;2.83;;;25.70;47.90;;;-142.21;51.02;112049.66;5053623;28;20238;-79
2022/05/12 01:25:18;;;;;;;3.83;2.50;;;25.60;47.60;;;-142.21;53.34;112049.66;5053502;28;20194;-78
2022/05/12 01:27:46;;;;;;;5.33;3.17;;;25.60;48.10;;;-142.21;51.52;112049.66;5052217;28;20270;-77
2022/05/12 01:30:18;;;;;;;2.77;2.57;;;25.60;47.50;;;-142.21;50.69;112049.66;5054105;28;20285;-78
2022/05/12 01:32:47;;;;;;;3.83;2.47;;;25.50;47.20;;;-142.21;50.12;112049.66;5053648;28;20190;-78
2022/05/12 01:35:16;;;;;;;2.73;2.10;;;25.40;47.30;;;-142.21;50.18;112049.66;5053346;28;20707;-79
2022/05/12 01:37:46;;;;;;;4.43;2.20;;;25.40;47.20;;;-142.21;50.34;112049.66;5052999;28;20205;-78
2022/05/12 01:40:23;;;;;;;2.50;2.30;;;25.40;47.20;;;-142.21;49.46;112049.66;5053894;28;20212;-79
2022/05/12 01:42:52;;;;;;;2.40;2.20;;;25.40;47.00;;;-142.21;48.83;112049.66;5052653;28;20251;-79
2022/05/12 01:45:21;;;;;;;2.13;1.93;;;25.40;46.90;;;-142.21;48.74;112049.66;5053099;28;20253;-77
2022/05/12 01:47:50;;;;;;;3.47;2.30;;;25.40;46.70;;;-142.21;49.73;112049.66;5052635;28;20224;-79
2022/05/12 01:50:19;;;;;;;3.90;2.60;;;25.40;46.70;;;-142.21;48.89;112049.66;5053110;28;20208;-79
2022/05/12 01:52:46;;;;;;;3.60;2.10;;;25.40;46.90;;;-142.21;50.62;112049.66;5052436;28;20290;-77
2022/05/12 01:55:19;;;;;;;2.63;2.10;;;25.40;47.00;;;-142.21;49.11;112049.66;5053369;28;20311;-78
2022/05/12 01:57:46;;;;;;;4.57;2.17;;;25.40;46.60;;;-142.21;49.10;112049.66;5045355;28;20671;-79
2022/05/12 02:00:19;;;;;;;3.77;2.17;;;25.40;46.90;;;-142.21;50.63;112049.66;5052983;28;20233;-79
2022/05/12 02:02:47;;;;;;;3.93;2.13;;;25.40;47.00;;;-142.21;49.48;112049.66;5052357;28;20188;-77
2022/05/12 02:05:15;;;;;;;2.20;2.00;;;25.40;46.70;;;-142.21;49.76;112049.66;5053562;28;20205;-78
2022/05/12 02:07:46;;;;;;;4.30;1.90;;;25.40;47.00;;;-142.21;48.42;112049.66;5052163;28;20237;-78
2022/05/12 02:10:20;;;;;;;2.80;1.93;;;25.40;46.60;;;-142.21;48.60;112049.66;5053001;28;20577;-79
2022/05/12 02:12:47;;;;;;;3.87;1.90;;;25.30;46.90;;;-142.21;49.07;112049.66;5051660;28;20263;-78
2022/05/12 02:15:15;;;;;;;3.33;2.13;;;25.30;46.60;;;-142.21;49.55;112049.66;5053115;28;20312;-78
2022/05/12 02:17:42;;;;;;;2.20;2.00;;;25.30;46.80;;;-142.21;49.17;112049.66;5052221;28;20280;-76
2022/05/12 02:20:11;;;;;;;1.77;1.67;;;25.30;46.90;;;-142.21;48.67;112049.66;5053157;28;20292;-78
2022/05/12 02:22:39;;;;;;;2.37;1.80;;;25.20;46.50;;;-142.21;48.82;112049.66;5051993;28;20278;-79
2022/05/12 02:25:09;;;;;;;3.67;2.00;;;25.20;46.50;;;-142.21;49.48;112049.66;5052765;28;20208;-79
2022/05/12 02:27:42;;;;;;;3.40;2.23;;;25.20;46.90;;;-142.21;49.81;112049.66;5051805;28;20299;-77
2022/05/12 02:30:12;;;;;;;4.37;2.37;;;25.20;46.90;;;-142.21;51.21;112049.66;5052283;28;20198;-79
2022/05/12 02:32:39;;;;;;;2.03;1.83;;;25.20;47.40;;;-142.21;51.00;112049.66;5051894;28;20205;-79
2022/05/12 02:35:11;;;;;;;3.00;1.97;;;25.10;47.20;;;-142.21;52.69;112049.66;5051951;28;20732;-78
2022/05/12 02:37:38;;;;;;;2.53;2.10;;;25.10;47.70;;;-142.21;52.18;112049.66;5050411;28;20291;-77
2022/05/12 02:40:08;;;;;;;3.00;2.00;;;25.00;47.60;;;-142.21;51.80;112049.66;5051266;28;20294;-76
2022/05/12 02:42:37;;;;;;;3.20;1.87;;;25.00;47.80;;;-142.21;52.22;112049.66;5052243;28;20230;-78
2022/05/12 02:45:06;;;;;;;2.13;1.70;;;25.00;47.70;;;-142.21;51.34;112049.66;5052202;28;20257;-78
2022/05/12 02:47:34;;;;;;;2.03;1.73;;;24.90;47.30;;;-142.21;50.76;112049.66;5052144;28;20287;-78
2022/05/12 02:50:01;;;;;;;5.00;1.90;;;24.90;47.30;;;-142.21;52.75;112049.66;5051632;28;20229;-75
2022/05/12 02:52:28;;;;;;;1.97;1.60;;;24.90;47.80;;;-142.21;51.43;112049.66;5052351;28;20205;-77
2022/05/12 02:54:56;;;;;;;4.10;1.80;;;24.90;47.50;;;-142.21;51.13;112049.66;5047819;28;20278;-79
2022/05/12 02:57:23;;;;;;;3.00;1.80;;;24.80;47.40;;;-142.21;52.05;112049.66;5051472;28;20670;-78
2022/05/12 02:59:52;;;;;;;2.30;1.90;;;24.80;47.70;;;-142.21;51.87;112049.66;5051351;28;20197;-77
2022/05/12 03:02:19;;;;;;;1.80;1.57;;;24.70;47.70;;;-142.21;52.01;112049.66;5052030;28;20209;-78
2022/05/12 03:04:46;;;;;;;1.80;1.70;;;24.80;47.60;;;-142.21;53.91;112049.66;5051565;28;20209;-78
2022/05/12 03:07:13;;;;;;;2.20;1.80;;;24.70;47.90;;;-142.21;54.07;112049.66;5051818;28;20616;-79
2022/05/12 03:09:40;;;;;;;1.73;1.60;;;24.70;48.30;;;-142.21;53.18;112049.66;5051664;28;20205;-79
2022/05/12 03:12:08;;;;;;;2.23;2.00;;;24.60;47.90;;;-142.21;53.75;112049.66;5051445;28;20289;-79
2022/05/12 03:14:35;;;;;;;2.13;1.90;;;24.60;48.60;;;-142.21;53.97;112049.66;5052068;28;20264;-77
2022/05/12 03:17:05;;;;;;;2.23;1.87;;;24.60;48.30;;;-142.21;54.05;112049.66;5051563;28;20288;-79
2022/05/12 03:19:32;;;;;;;1.87;1.73;;;24.50;48.10;;;-142.21;54.70;112049.66;5051652;28;20198;-79
2022/05/12 03:22:00;;;;;;;1.90;1.70;;;24.50;48.20;;;-142.21;54.60;112049.66;5050821;28;20217;-79
2022/05/12 03:24:27;;;;;;;1.90;1.80;;;24.50;48.40;;;-142.21;55.94;112049.66;5051739;28;20262;-78
2022/05/12 03:26:54;;;;;;;2.27;1.70;;;24.50;48.40;;;-142.21;56.25;112049.66;5051006;28;20288;-79
2022/05/12 03:29:22;;;;;;;3.40;2.03;;;24.40;48.30;;;-142.21;56.64;112049.66;5050928;28;20288;-77
2022/05/12 03:31:49;;;;;;;3.53;1.60;;;24.40;48.70;;;-142.21;55.56;112049.66;5044775;28;20614;-78
2022/05/12 03:34:18;;;;;;;2.97;1.70;;;24.30;48.50;;;-142.21;56.18;112049.66;5051447;28;20316;-78
2022/05/12 03:36:45;;;;;;;2.50;1.63;;;24.30;48.60;;;-142.21;58.36;112049.66;5050841;28;20299;-79
2022/05/12 03:39:12;;;;;;;2.37;1.67;;;24.30;49.10;;;-142.21;57.66;112049.66;5050674;28;20293;-79
2022/05/12 03:41:39;;;;;;;3.43;1.97;;;24.20;48.90;;;-142.21;57.70;112049.66;5051566;28;20280;-79
2022/05/12 03:46:52;;;;;;;5.30;1.67;;;24.20;49.10;;;-142.21;57.54;112049.66;5050738;28;20204;-78
2022/05/12 03:49:20;;;;;;;4.37;1.97;;;24.10;49.00;;;-142.21;57.47;112049.66;5051067;28;20204;-79
2022/05/12 03:51:48;;;;;;;2.37;2.03;;;24.10;48.90;;;-142.21;60.45;112049.66;5054383;28;20278;-79
2022/05/12 03:54:15;;;;;;;1.70;1.60;;;24.10;49.20;;;-142.21;58.48;112049.66;5055221;28;20205;-78
2022/05/12 03:56:43;;;;;;;2.60;1.70;;;24.10;49.10;;;-142.21;58.92;112049.66;5055646;28;20201;-78
2022/05/12 03:59:11;;;;;;;3.80;1.57;;;24.10;49.10;;;-142.21;60.40;112049.66;5055394;28;20296;-77
2022/05/12 04:01:38;;;;;;;3.23;1.90;;;24.10;49.50;;;-142.21;61.87;112049.66;5055321;28;20228;-79
2022/05/12 04:04:06;;;;;;;2.93;2.03;;;24.00;50.00;;;-142.21;63.15;112049.66;5055034;28;20213;-78
2022/05/12 04:06:35;;;;;;;5.17;2.10;;;23.90;49.50;;;-142.21;70.89;112049.66;5055147;28;20284;-79
2022/05/12 04:09:02;;;;;;;4.93;2.00;;;23.90;51.20;;;-142.21;73.71;112049.66;5054438;28;20202;-79
2022/05/12 04:11:30;;;;;;;6.33;2.73;;;23.80;51.80;;;-142.21;76.66;112049.66;5054893;28;20293;-80
2022/05/12 04:13:57;;;;;;;1.70;1.60;;;23.80;52.00;;;-142.21;76.80;112049.66;5054862;28;20279;-80
2022/05/12 04:16:24;;;;;;;3.47;1.73;;;23.80;52.30;;;-142.21;74.87;112049.66;5055001;28;20225;-79
2022/05/12 04:18:52;;;;;;;1.90;1.80;;;23.70;52.60;;;-142.21;80.07;112049.66;5054130;28;20201;-78
2022/05/12 04:21:19;;;;;;;2.93;2.00;;;23.60;53.40;;;-142.21;79.05;112049.66;5054845;28;20301;-79
2022/05/12 04:23:47;;;;;;;1.90;1.63;;;23.50;53.00;;;-142.21;75.69;112049.66;5052274;28;20598;-79
2022/05/12 04:26:14;;;;;;;3.83;1.73;;;23.50;52.60;;;-142.21;82.59;112049.66;5043759;28;20289;-79
2022/05/12 04:28:42;;;;;;;2.03;1.70;;;23.50;53.90;;;-142.21;78.77;112049.66;5054432;28;20233;-79
2022/05/12 04:31:09;;;;;;;2.70;2.10;;;23.40;52.60;;;-142.21;82.99;112049.66;5054465;28;20654;-78
2022/05/12 04:36:21;;;;;;;31.07;9.17;;;23.30;54.50;;;-142.21;92.43;112049.66;5054365;28;20225;-78
2022/05/12 04:38:52;;;;;;;27.40;8.03;;;23.30;55.60;;;-142.21;89.81;112049.66;5053850;28;20202;-78
2022/05/12 04:41:20;;;;;;;17.50;5.40;;;23.30;56.00;;;-142.21;82.87;112049.66;5054618;28;20223;-80
2022/05/12 04:43:47;;;;;;;31.50;8.57;;;23.20;54.50;;;-142.21;91.85;112049.66;5053849;28;20201;-80
2022/05/12 04:46:14;;;;;;;3.43;2.10;;;23.10;54.40;;;-142.21;82.52;112049.66;5054037;28;20588;-80
2022/05/12 04:48:42;;;;;;;2.63;1.90;;;23.10;54.40;;;-142.21;89.16;112049.66;5053824;28;20202;-79
2022/05/12 04:51:09;;;;;;;1.93;1.70;;;23.10;55.40;;;-142.21;87.26;112049.66;5053494;28;20297;-79
2022/05/12 04:53:37;;;;;;;3.30;2.00;;;23.10;55.30;;;-142.21;87.37;112049.66;5053840;28;20680;-79
2022/05/12 04:56:06;;;;;;;1.60;1.50;;;23.20;55.90;;;-142.21;88.27;112049.66;5054137;28;20238;-79
2022/05/12 04:58:33;;;;;;;2.40;1.57;;;23.20;55.90;;;-142.21;81.78;112049.66;5054563;28;20240;-79
2022/05/12 05:01:00;;;;;;;2.20;1.50;;;23.10;54.30;;;-142.21;84.68;112049.66;5053728;28;20233;-78
2022/05/12 05:03:28;;;;;;;1.37;1.27;;;23.10;55.70;;;-142.21;85.25;112049.66;5053667;28;20237;-78
2022/05/12 05:05:55;;;;;;;1.97;1.50;;;23.20;55.10;;;-142.21;82.98;112049.66;5053772;28;20201;-79
2022/05/12 05:08:24;;;;;;;3.50;1.50;;;23.20;55.40;;;-142.21;86.43;112049.66;5034368;28;20206;-79
2022/05/12 05:10:54;;;;;;;1.73;1.63;;;23.20;55.80;;;-142.21;87.90;112049.66;5053342;28;20580;-78
2022/05/12 05:13:23;;;;;;;2.50;1.33;;;23.30;55.60;;;-142.21;80.38;112049.66;5054157;28;20232;-79
2022/05/12 05:15:53;;;;;;;2.00;1.40;;;23.30;54.10;;;-142.21;81.56;112049.66;5053575;28;20218;-79
2022/05/12 05:18:22;;;;;;;3.03;1.37;;;23.20;54.40;;;-142.21;85.92;112049.66;5053887;28;20197;-78
2022/05/12 05:20:50;;;;;;;2.77;1.47;;;23.30;55.50;;;-142.21;83.53;112049.66;5053213;28;20283;-78
2022/05/12 05:23:21;;;;;;;2.00;1.60;;;23.30;54.80;;;-142.21;85.37;112049.66;5054019;28;20237;-78
2022/05/12 05:25:48;;;;;;;4.23;1.40;;;23.30;54.80;;;-142.21;83.87;112049.66;5042036;28;20198;-79
2022/05/12 05:28:16;;;;;;;2.00;1.40;;;23.20;54.80;;;-142.21;86.81;112049.66;5052917;28;20229;-78
2022/05/12 05:30:45;;;;;;;3.80;1.70;;;23.30;54.90;;;-142.21;81.42;112049.66;5053786;28;20201;-77
2022/05/12 05:33:12;;;;;;;1.60;1.50;;;23.30;54.30;;;-142.21;81.88;112049.66;5052780;28;20666;-80
2022/05/12 05:35:40;;;;;;;1.93;1.50;;;23.30;54.30;;;-142.21;86.13;112049.66;5053050;28;20222;-79
2022/05/12 05:38:07;;;;;;;2.57;1.40;;;23.40;54.30;;;-142.21;81.90;112049.66;5053146;28;20205;-78
2022/05/12 05:40:34;;;;;;;2.20;1.43;;;23.40;54.40;;;-142.21;81.87;112049.66;5053279;28;20237;-78
2022/05/12 05:43:02;;;;;;;2.07;1.50;;;23.50;54.80;;;-142.21;79.45;112049.66;5053170;28;20300;-79
2022/05/12 05:45:30;;;;;;;1.77;1.67;;;23.50;53.60;;;-142.21;85.72;112049.66;5053463;28;20238;-78
2022/05/12 05:48:03;;;;;;;2.17;1.80;;;23.50;54.50;;;-142.21;78.04;112049.66;5052276;28;20208;-76
2022/05/12 05:53:23;;;;;;;1.63;1.40;;;23.60;53.70;;;-142.21;78.01;112049.66;5053256;28;20274;-78
2022/05/12 05:53:23;;;;;;;1.70;1.40;;;23.60;53.70;;;-142.21;79.71;112049.66;5033596;28;20221;-80
2022/05/12 05:55:52;;;;;;;3.03;1.40;;;23.70;53.50;;;-142.21;77.27;112049.66;5049490;28;20221;-78
2022/05/12 05:58:20;;;;;;;2.60;1.43;;;23.70;53.10;;;-142.21;80.46;112049.66;5045721;28;20293;-78
2022/05/12 06:00:47;;;;;;;4.40;1.60;;;23.80;54.20;;;-142.21;82.30;112049.66;5038989;28;20289;-78
2022/05/12 06:03:16;;;;;;;3.50;1.87;;;23.80;54.20;;;-142.21;75.70;112049.66;5043899;28;20199;-79
2022/05/12 06:05:44;;;;;;;3.33;1.93;;;23.80;52.90;;;-142.21;78.20;112049.66;5045370;28;20280;-79
2022/05/12 06:08:14;;;;;;;2.10;1.60;;;23.80;53.10;;;-142.21;80.55;112049.66;5051340;28;20264;-79
2022/05/12 06:10:48;;;;;;;1.83;1.43;;;23.80;54.20;;;-142.21;81.38;112049.66;5051078;28;20655;-77
2022/05/12 06:13:16;;;;;;;3.70;1.60;;;23.80;54.30;;;-142.21;76.90;112049.66;5053288;28;20214;-79
2022/05/12 06:15:50;;;;;;;2.27;1.57;;;23.80;53.60;;;-142.21;75.18;112049.66;5052231;28;20264;-78
2022/05/12 06:18:19;;;;;;;2.27;1.30;;;23.90;52.90;;;-142.21;80.19;112049.66;5052930;28;20190;-78
2022/05/12 06:20:50;;;;;;;1.97;1.67;;;23.90;53.40;;;-142.21;78.13;112049.66;5052307;28;20225;-78
2022/05/12 06:23:18;;;;;;;2.00;1.70;;;23.90;53.40;;;-142.21;82.59;112049.66;5052455;28;20190;-77
2022/05/12 06:25:46;;;;;;;3.93;1.47;;;23.90;54.20;;;-142.21;77.73;112049.66;5052688;28;20198;-79
2022/05/12 06:28:13;;;;;;;3.63;1.43;;;23.90;54.20;;;-142.21;78.29;112049.66;5051421;28;20202;-78
2022/05/12 06:30:41;;;;;;;1.80;1.37;;;23.90;53.60;;;-142.21;76.82;112049.66;5051869;28;20669;-78
2022/05/12 06:33:17;;;;;;;2.70;1.50;;;24.00;53.60;;;-142.21;83.42;112049.66;5050579;28;20194;-79
2022/05/12 06:35:47;;;;;;;2.50;1.60;;;24.00;54.20;;;-142.21;79.36;112049.66;5051873;28;20210;-79
2022/05/12 06:38:14;;;;;;;1.40;1.20;;;24.00;54.00;;;-142.21;80.22;112049.66;5051855;28;20553;-77
2022/05/12 06:40:42;;;;;;;2.20;1.70;;;24.10;54.60;;;-142.21;81.45;112049.66;5052742;28;20287;-77
2022/05/12 06:43:09;;;;;;;1.70;1.60;;;24.10;54.50;;;-142.21;81.35;112049.66;5051488;28;20205;-77
2022/05/12 06:45:37;;;;;;;2.70;1.30;;;24.20;54.60;;;-142.21;80.53;112049.66;5052075;28;20318;-78
2022/05/12 06:48:05;;;;;;;1.77;1.60;;;24.40;54.00;;;-142.21;80.06;112049.66;5050143;28;20297;-79
2022/05/12 06:50:33;;;;;;;1.67;1.47;;;24.50;54.10;;;-142.21;79.52;112049.66;5051289;28;20240;-77
2022/05/12 06:53:01;;;;;;;2.07;1.70;;;24.50;53.70;;;-142.21;77.04;112049.66;5050855;28;20207;-80
2022/05/12 06:55:31;;;;;;;4.50;1.67;;;24.60;54.00;;;-142.21;70.14;112049.66;5051487;28;20312;-79
2022/05/12 06:57:59;;;;;;;3.20;1.43;;;24.70;52.30;;;-142.21;71.07;112049.66;5051770;28;20296;-80
2022/05/12 07:00:27;;;;;;;2.67;1.83;;;24.60;51.90;;;-142.21;69.81;112049.66;5051040;28;20621;-80
2022/05/12 07:02:54;;;;;;;2.33;1.77;;;24.70;52.00;;;-142.21;71.45;112049.66;5051928;28;20631;-77
2022/05/12 07:05:25;;;;;;;4.87;1.60;;;24.80;51.70;;;-142.21;69.45;112049.66;5051032;28;20730;-79
2022/05/12 07:07:54;;;;;;;2.53;1.43;;;25.00;51.50;;;-142.21;66.40;112049.66;5050078;28;20202;-79
2022/05/12 07:10:25;;;;;;;3.33;1.30;;;25.50;50.10;;;-142.21;67.12;112049.66;5051566;28;20205;-78
2022/05/12 07:12:54;;;;;;;1.93;1.40;;;25.80;49.60;;;-142.21;66.26;112049.66;5051561;28;20197;-79
2022/05/12 07:15:25;;;;;;;1.40;1.20;;;25.90;49.20;;;-142.21;61.39;112049.66;5051539;28;20222;-80
2022/05/12 07:17:53;;;;;;;1.33;1.23;;;26.00;48.80;;;-142.21;59.58;112049.66;5050689;28;20672;-79
2022/05/12 07:28:37;;;;;;;2.30;1.13;;;28.10;45.50;;;-142.21;58.18;112049.66;5044860;28;20342;-79
2022/05/12 07:31:06;;;;;;;1.83;1.60;;;27.30;45.80;;;-142.21;57.91;112049.66;5051106;28;20559;-78
2022/05/12 07:33:37;;;;;;;2.20;1.20;;;26.70;46.20;;;-142.21;59.81;112049.66;5050887;28;20345;-77
2022/05/12 07:36:09;;;;;;;3.43;1.40;;;26.30;47.50;;;-142.21;59.55;112049.66;5043501;28;20734;-79
2022/05/12 07:38:37;;;;;;;2.73;1.10;;;26.10;48.00;;;-142.21;60.41;112049.66;5032844;28;20197;-79
2022/05/12 07:41:07;;;;;;;3.47;1.37;;;25.80;47.90;;;-142.21;64.62;112049.66;5051037;28;20241;-79
2022/05/12 07:43:34;;;;;;;1.90;1.30;;;25.70;49.80;;;-142.21;59.43;112049.66;5051757;28;20224;-82
2022/05/12 07:46:02;;;;;;;2.97;1.30;;;25.70;48.80;;;-142.21;56.28;112049.66;5050271;28;20248;-79
2022/05/12 07:48:29;;;;;;;1.60;1.40;;;25.70;47.90;;;-142.21;56.58;112049.66;5051745;28;20561;-78
2022/05/12 07:50:56;;;;;;;3.97;1.50;;;25.80;48.20;;;-142.21;55.11;112049.66;5050193;28;20297;-78
2022/05/12 07:53:24;;;;;;;1.53;1.30;;;26.00;47.60;;;-142.21;54.73;112049.66;5051767;28;20244;-78
2022/05/12 07:55:52;;;;;;;2.20;1.40;;;26.20;48.10;;;-142.21;54.54;112049.66;5051054;28;20721;-79
2022/05/12 07:58:20;;;;;;;2.60;1.50;;;26.40;48.10;;;-142.21;52.44;112049.66;5051068;28;20206;-83
2022/05/12 08:00:47;;;;;;;1.60;1.40;;;26.20;71.30;;;-142.21;50.40;112049.66;5050616;28;20202;-79
2022/05/12 08:03:15;;;;;;;2.07;1.43;;;25.90;61.40;;;-142.21;49.64;112049.66;5051048;28;20216;-80
2022/05/12 08:05:42;;;;;;;2.07;1.50;;;26.00;60.10;;;-142.21;48.92;112049.66;5050517;28;20225;-79
2022/05/12 08:08:11;;;;;;;3.43;1.23;;;25.90;56.70;;;-142.21;51.93;112049.66;5051023;28;20278;-80
2022/05/12 08:10:39;;;;;;;3.00;1.33;;;25.90;54.50;;;-142.21;56.40;112049.66;5051433;28;20205;-79
2022/05/12 08:13:14;;;;;;;1.90;1.57;;;26.00;53.40;;;-142.21;56.24;112049.66;5051053;28;20229;-78
2022/05/12 08:15:43;;;;;;;2.03;1.37;;;26.00;52.50;;;-142.21;56.45;112049.66;5050633;28;20221;-81
2022/05/12 08:18:11;;;;;;;1.30;1.20;;;26.10;51.90;;;-142.21;60.06;112049.66;5050273;28;20212;-80
2022/05/12 08:20:39;;;;;;;1.50;1.40;;;26.10;52.20;;;-142.21;56.43;112049.66;5051436;28;20332;-79
2022/05/12 08:23:07;;;;;;;2.40;1.50;;;26.20;50.90;;;-142.21;56.31;112049.66;5050658;28;20202;-81
2022/05/12 08:25:34;;;;;;;2.27;1.13;;;26.20;50.30;;;-142.21;57.33;112049.66;5034667;28;20289;-79
2022/05/12 08:28:02;;;;;;;4.13;1.40;;;26.20;50.60;;;-142.21;56.22;112049.66;5048862;28;20255;-78
2022/05/12 08:30:31;;;;;;;1.80;1.20;;;26.30;50.40;;;-142.21;54.35;112049.66;5051921;28;20629;-80
2022/05/12 08:33:00;;;;;;;2.77;1.43;;;26.30;50.20;;;-142.21;56.24;112049.66;5051343;28;20245;-77
2022/05/12 08:35:28;;;;;;;1.67;1.30;;;26.50;50.70;;;-142.21;53.36;112049.66;5051427;28;20297;-77
2022/05/12 08:37:56;;;;;;;1.97;1.20;;;26.30;48.90;;;-142.21;52.55;112049.66;5052563;28;20202;-81
2022/05/12 08:40:38;;;;;;;5.13;1.63;;;26.60;49.50;;;-142.21;50.63;112049.66;5055368;28;20764;-78
2022/05/12 08:43:14;;;;;;;2.23;1.60;;;26.80;48.60;;;-142.21;52.14;112049.66;5054922;28;20190;-82
2022/05/12 08:45:43;;;;;;;3.07;1.47;;;26.90;48.60;;;-142.21;54.74;112049.66;5054262;28;20592;-79
2022/05/12 08:48:15;;;;;;;3.37;1.10;;;27.10;48.90;;;-142.21;53.92;112049.66;5054281;28;20202;-80
2022/05/12 08:50:44;;;;;;;2.60;1.50;;;26.90;48.60;;;-142.21;51.52;112049.66;5055563;28;20200;-81
2022/05/12 08:53:19;;;;;;;1.40;1.30;;;27.00;48.10;;;-142.21;47.69;112049.66;5055026;28;20209;-79
2022/05/12 08:55:51;;;;;;;3.83;1.37;;;27.40;47.80;;;-142.21;47.25;112049.66;5054840;28;20201;-77
2022/05/12 08:58:26;;;;;;;1.73;1.43;;;27.30;47.30;;;-142.21;46.49;112049.66;5054539;28;20190;-79
2022/05/12 09:01:01;;;;;;;2.40;1.40;;;27.60;46.30;;;-142.21;46.70;112049.66;5054172;28;20193;-79
2022/05/12 09:03:53;;;;;;;3.13;1.50;;;27.70;46.80;;;-142.21;47.87;112049.66;5054281;28;20306;-77
2022/05/12 09:06:24;;;;;;;1.77;1.23;;;28.20;45.30;;;-142.21;48.43;112049.66;5052777;28;20289;-78
2022/05/12 09:09:10;;;;;;;1.93;1.60;;;28.20;45.60;;;-142.21;49.57;112049.66;5053858;28;20298;-77
2022/05/12 09:11:48;;;;;;;3.40;1.43;;;28.00;45.70;;;-142.21;49.37;112049.66;5054014;28;20272;-79
2022/05/12 09:14:23;;;;;;;2.70;1.60;;;27.90;45.70;;;-142.21;49.31;112049.66;5053558;28;20763;-78
2022/05/12 09:16:54;;;;;;;2.10;1.63;;;27.90;46.00;;;-142.21;47.80;112049.66;5053933;28;20296;-78
2022/05/12 09:19:25;;;;;;;2.73;1.50;;;27.80;45.20;;;-142.21;48.14;112049.66;5054044;28;20550;-77
2022/05/12 09:21:53;;;;;;;3.90;1.30;;;27.90;45.80;;;-142.21;50.41;112049.66;5053815;28;20666;-76
2022/05/12 09:24:24;;;;;;;2.60;1.50;;;27.90;46.20;;;-142.21;48.04;112049.66;5051676;28;20251;-76
2022/05/12 09:27:06;;;;;;;3.20;1.93;;;27.60;45.50;;;-142.21;49.63;112049.66;5034196;28;20274;-77
2022/05/12 09:29:46;;;;;;;2.87;1.60;;;27.50;46.00;;;-142.21;47.57;112049.66;5049080;28;20203;-78
2022/05/12 09:32:24;;;;;;;1.97;1.50;;;27.40;45.50;;;-142.21;49.16;112049.66;5053549;28;20562;-78
2022/05/12 09:35:23;;;;;;;1.47;1.20;;;27.30;45.80;;;-142.21;48.24;112049.66;5053968;28;20197;-78
2022/05/12 09:37:52;;;;;;;2.53;1.43;;;27.30;45.50;;;-142.21;47.23;112049.66;5053720;28;20249;-79
2022/05/12 09:40:35;;;;;;;6.60;1.73;;;27.20;45.20;;;-142.21;47.85;112049.66;5052277;28;20198;-77
2022/05/12 09:43:18;;;;;;;2.83;1.63;;;27.10;45.40;;;-142.21;49.09;112049.66;5051287;28;20637;-77
2022/05/12 09:46:14;;;;;;;3.37;1.80;;;27.10;46.00;;;-142.21;48.16;112049.66;5053193;28;20328;-76
2022/05/12 09:48:42;;;;;;;4.17;1.30;;;27.30;45.70;;;-142.21;47.48;112049.66;5053306;28;20611;-77
2022/05/12 09:51:32;;;;;;;2.40;1.43;;;27.60;45.70;;;-142.21;46.46;112049.66;5053125;28;20202;-78
2022/05/12 09:54:27;;;;;;;5.20;1.80;;;27.80;46.20;;;-142.21;46.38;112049.66;5052350;28;20268;-79
2022/05/12 09:57:14;;;;;;;2.10;1.40;;;28.10;46.00;;;-142.21;45.18;112049.66;5042561;28;20298;-77
2022/05/12 09:59:44;;;;;;;5.70;1.70;;;28.20;45.10;;;-142.21;46.24;112049.66;5053742;28;20666;-75
2022/05/12 10:08:21;;;;;;;4.80;1.73;;;28.50;43.60;;;-142.21;42.53;112049.66;5053353;28;20546;-79
2022/05/12 10:10:55;;;;;;;1.63;1.30;;;28.50;43.60;;;-142.21;44.20;112049.66;5053851;28;20195;-78
2022/05/12 10:13:33;;;;;;;3.03;1.60;;;28.60;44.00;;;-142.21;43.31;112049.66;5053583;28;20195;-79
2022/05/12 10:16:04;;;;;;;2.93;1.70;;;28.50;43.60;;;-142.21;43.85;112049.66;5063301;28;20246;-76
2022/05/12 10:18:37;;;;;;;2.87;1.47;;;28.50;43.60;;;-142.21;42.40;112049.66;5059847;28;20218;-79
2022/05/12 10:21:18;;;;;;;7.00;2.17;;;28.50;43.40;;;-142.21;42.44;112049.66;5052564;28;20669;-78
2022/05/12 10:24:03;;;;;;;4.23;2.10;;;28.50;43.80;;;-142.21;42.68;112049.66;5054232;28;20188;-76
2022/05/12 10:26:39;;;;;;;1.80;1.70;;;28.50;43.50;;;-142.21;42.23;112049.66;5054243;28;20218;-78
2022/05/12 10:29:22;;;;;;;6.33;2.03;;;28.60;43.10;;;-142.21;42.04;112049.66;5053814;28;20283;-81
2022/05/12 10:32:30;;;;;;;3.57;1.53;;;28.60;43.30;;;-142.21;42.27;112049.66;5056245;28;20602;-74